Time;durP1;ratioP1;P1;durP2;ratioP2;P2;SDS_P1;SDS_P2;PMS_P1;PMS_P2;Temp;Humidity;BMP_temperature;BMP_pressure;BME280_temperature;BME280_humidity;BME280_pressure;Samples;Min_cycle;Max_cycle;Signal;HPM_P1;HPM_P2
2023/02/27 10:18:47;;;;;;;5.20;1.33;;;;;;;0.64;63.68;99715.84;5104574;27;20366;-78
2023/02/27 10:21:19;;;;;;;2.40;1.60;;;;;;;0.76;62.71;99686.50;5099664;28;20509;-77
2023/02/27 10:23:53;;;;;;;1.48;1.38;;;;;;;0.96;61.72;99714.50;5087401;28;20051;-77
2023/02/27 10:26:22;;;;;;;3.08;1.27;;;;;;;1.00;59.70;99695.44;5085516;28;20495;-76
2023/02/27 10:28:48;;;;;;;1.60;1.30;;;;;;;1.06;59.98;99711.06;5088699;28;20052;-77
2023/02/27 10:31:20;;;;;;;1.83;1.50;;;;;;;1.34;60.56;99719.78;5086616;28;20048;-77
2023/02/27 10:33:51;;;;;;;1.77;1.40;;;;;;;1.33;58.36;99711.84;5078013;28;20147;-76
2023/02/27 10:36:20;;;;;;;1.33;1.13;;;;;;;1.32;59.34;99724.38;5088319;28;20131;-77
2023/02/27 10:38:50;;;;;;;2.65;1.60;;;;;;;1.21;58.78;99717.13;5081201;28;20403;-77
2023/02/27 10:41:19;;;;;;;2.42;1.45;;;;;;;1.51;59.46;99723.03;5084683;28;20050;-77
2023/02/27 10:43:46;;;;;;;1.27;0.93;;;;;;;1.42;57.53;99729.94;5087065;28;20054;-77
2023/02/27 10:46:14;;;;;;;1.52;1.10;;;;;;;1.36;59.40;99708.94;5085078;28;20066;-76
2023/02/27 10:48:41;;;;;;;1.73;1.40;;;;;;;1.45;57.66;99715.47;5086263;28;20486;-77
2023/02/27 10:51:25;;;;;;;4.15;1.27;;;;;;;1.46;57.29;99719.84;5084861;28;20058;-77
2023/02/27 10:53:52;;;;;;;1.25;1.10;;;;;;;1.64;58.58;99698.84;5083217;28;20051;-77
2023/02/27 10:56:25;;;;;;;0.98;0.85;;;;;;;1.72;57.38;99704.50;5084347;28;20057;-77
2023/02/27 10:59:04;;;;;;;1.90;0.90;;;;;;;1.51;56.33;99710.50;5076403;28;20045;-77
2023/02/27 11:01:42;;;;;;;1.83;1.20;;;;;;;1.35;57.49;99710.75;5086428;28;20327;-77
2023/02/27 11:04:10;;;;;;;1.38;1.25;;;;;;;1.35;59.25;99688.47;5087287;28;20052;-77
2023/02/27 11:06:38;;;;;;;0.80;0.80;;;;;;;1.54;57.14;99714.78;5082438;28;20051;-77
2023/02/27 11:09:19;;;;;;;0.98;0.98;;;;;;;1.38;57.85;99691.78;5083361;28;20048;-77
2023/02/27 11:11:45;;;;;;;1.33;0.93;;;;;;;1.37;57.59;99699.94;5086147;28;20140;-77
2023/02/27 11:14:24;;;;;;;2.28;1.42;;;;;;;1.40;57.72;99705.06;5085160;28;20048;-77
2023/02/27 11:16:53;;;;;;;5.40;1.10;;;;;;;1.45;59.26;99696.72;5085272;28;20048;-77
2023/02/27 11:19:32;;;;;;;1.58;1.48;;;;;;;1.57;56.57;99702.00;5087100;28;20056;-77
2023/02/27 11:22:14;;;;;;;1.40;1.17;;;;;;;1.50;58.21;99691.84;5083711;28;20437;-77
2023/02/27 11:24:40;;;;;;;1.38;1.27;;;;;;;1.90;57.37;99697.75;5086271;28;20052;-78
2023/02/27 11:27:20;;;;;;;5.15;1.83;;;;;;;1.91;58.08;99693.22;5084032;28;20052;-77
2023/02/27 11:29:57;;;;;;;1.35;1.13;;;;;;;2.13;56.67;99697.81;5073848;28;20048;-77
2023/02/27 11:32:25;;;;;;;1.23;1.00;;;;;;;2.05;55.78;99698.41;5070248;28;20057;-77
2023/02/27 11:34:52;;;;;;;1.33;1.23;;;;;;;1.99;56.40;99685.47;5066007;28;20063;-77
2023/02/27 11:37:26;;;;;;;1.30;1.15;;;;;;;2.11;56.02;99705.16;5062531;28;20060;-77
2023/02/27 11:40:03;;;;;;;1.65;1.38;;;;;;;2.04;56.72;99669.03;5068893;28;20052;-77
2023/02/27 11:42:34;;;;;;;3.28;1.50;;;;;;;2.23;57.76;99682.72;5068607;28;20052;-77
2023/02/27 11:45:04;;;;;;;2.15;1.33;;;;;;;2.16;54.15;99686.84;5070347;28;20131;-76
2023/02/27 11:47:32;;;;;;;;;;;;;;;2.39;55.75;99674.31;5072959;28;20052;-77
2023/02/27 11:50:28;;;;;;;1.38;1.13;;;;;;;2.57;56.01;99673.88;5071387;28;19928;-77
2023/02/27 11:53:13;;;;;;;4.80;1.90;;;;;;;2.56;57.07;99669.47;5068544;28;20116;-77
2023/02/27 11:55:39;;;;;;;4.45;1.70;;;;;;;2.61;56.84;99664.59;5072568;28;20059;-77
2023/02/27 11:58:13;;;;;;;2.03;1.70;;;;;;;2.59;58.01;99669.22;5077228;28;20052;-77
2023/02/27 12:00:44;;;;;;;1.98;1.58;;;;;;;2.55;57.35;99670.47;5072562;28;20052;-77
2023/02/27 12:03:16;;;;;;;2.60;1.42;;;;;;;2.54;55.83;99668.75;5076728;28;20046;-77
2023/02/27 12:05:46;;;;;;;1.67;1.20;;;;;;;2.79;57.27;99681.06;5072790;28;20063;-77
2023/02/27 12:08:19;;;;;;;4.03;1.45;;;;;;;3.09;56.77;99683.13;5072519;28;20055;-77
2023/02/27 12:10:51;;;;;;;2.45;1.30;;;;;;;2.83;55.89;99680.72;5068559;28;20049;-77
2023/02/27 12:13:21;;;;;;;1.80;1.65;;;;;;;2.91;55.30;99690.00;5073726;28;20404;-77
2023/02/27 12:15:54;;;;;;;3.60;1.70;;;;;;;2.76;55.78;99662.53;5065202;28;20052;-77
2023/02/27 12:18:26;;;;;;;2.60;1.52;;;;;;;2.65;56.64;99660.69;5070129;28;20056;-77
2023/02/27 12:20:57;;;;;;;2.83;1.52;;;;;;;2.61;55.94;99668.13;5070659;28;20068;-77
2023/02/27 12:23:32;;;;;;;2.60;1.77;;;;;;;2.81;56.61;99671.06;5064314;28;20484;-77
2023/02/27 12:26:04;;;;;;;1.55;1.23;;;;;;;3.17;58.34;99674.44;5070194;28;20051;-77
2023/02/27 12:28:40;;;;;;;2.00;1.45;;;;;;;2.92;55.83;99663.00;5064898;28;20219;-77
2023/02/27 12:31:24;;;;;;;4.07;1.60;;;;;;;2.72;56.06;99659.22;5073743;28;20049;-77
2023/02/27 12:33:58;;;;;;;3.25;1.20;;;;;;;2.87;56.93;99645.56;5069853;28;20123;-77
2023/02/27 12:36:26;;;;;;;2.13;1.92;;;;;;;2.60;56.57;99654.81;5072746;28;20048;-77
2023/02/27 12:38:54;;;;;;;3.58;1.50;;;;;;;2.41;55.90;99674.19;5076601;28;20044;-77
2023/02/27 12:41:42;;;;;;;5.90;2.30;;;;;;;2.32;56.91;99657.03;5072893;28;20063;-77
2023/02/27 12:44:40;;;;;;;2.50;1.80;;;;;;;2.03;57.75;99637.81;5070044;28;20518;-77
2023/02/27 12:47:20;;;;;;;3.60;1.60;;;;;;;2.44;56.46;99666.78;5062441;28;20068;-77
2023/02/27 12:49:52;;;;;;;;;;;;;;;2.28;57.39;99663.59;5068461;28;20051;-77
2023/02/27 12:52:28;;;;;;;4.15;1.50;;;;;;;2.27;55.50;99662.75;5072296;28;19926;-77
2023/02/27 12:55:04;;;;;;;4.88;2.42;;;;;;;2.76;57.06;99658.00;5063808;28;20056;-77
2023/02/27 12:58:00;;;;;;;6.05;2.45;;;;;;;2.90;54.95;99639.94;5070213;28;20059;-76
2023/02/27 13:00:31;;;;;;;0.90;0.90;;;;;;;3.03;53.27;99670.19;5068789;28;20789;-77
2023/02/27 13:03:05;;;;;;;1.58;1.20;;;;;;;3.10;52.59;99667.84;5071351;28;20051;-77
2023/02/27 13:05:40;;;;;;;2.00;1.17;;;;;;;3.02;52.15;99644.28;5071174;28;20048;-77
2023/02/27 13:08:20;;;;;;;1.10;1.00;;;;;;;3.30;51.13;99660.88;5062283;28;20503;-77
2023/02/27 13:10:54;;;;;;;1.73;1.58;;;;;;;3.26;53.84;99651.34;5064798;28;20051;-77
2023/02/27 13:13:28;;;;;;;3.83;1.10;;;;;;;3.35;52.60;99654.09;5066509;28;20380;-77
2023/02/27 13:15:59;;;;;;;2.10;1.67;;;;;;;2.93;54.31;99628.94;5065982;28;20131;-77
2023/02/27 13:18:36;;;;;;;1.70;1.30;;;;;;;2.40;55.78;99640.31;5070408;28;20139;-77
2023/02/27 13:21:11;;;;;;;2.83;1.15;;;;;;;1.91;55.88;99639.59;5068294;28;20059;-77
2023/02/27 13:23:49;;;;;;;3.22;1.80;;;;;;;2.15;56.28;99652.09;5068276;28;20053;-77
2023/02/27 13:26:23;;;;;;;2.28;1.38;;;;;;;2.51;55.53;99652.88;5069876;28;20052;-77
2023/02/27 13:28:51;;;;;;;3.60;1.70;;;;;;;2.69;55.49;99640.66;5061441;28;20055;-77
2023/02/27 13:31:30;;;;;;;1.38;1.23;;;;;;;2.80;56.04;99654.09;5066469;28;20048;-78
2023/02/27 13:34:07;;;;;;;1.20;1.10;;;;;;;2.78;54.73;99650.66;5063262;28;20045;-77
2023/02/27 13:36:42;;;;;;;1.17;1.10;;;;;;;2.38;54.53;99645.81;5062956;28;20051;-78
2023/02/27 13:39:42;;;;;;;2.45;1.65;;;;;;;2.07;55.40;99647.34;5070072;28;20052;-78
2023/02/27 13:42:42;;;;;;;1.88;1.42;;;;;;;2.30;55.41;99664.31;5070305;28;20048;-77
2023/02/27 13:45:24;;;;;;;;;;;;;;;2.50;55.16;99653.84;5067822;28;20051;-78
2023/02/27 13:47:51;;;;;;;0.85;0.85;;;;;;;2.33;54.36;99641.75;5065214;28;19985;-78
2023/02/27 13:50:51;;;;;;;0.80;0.80;;;;;;;2.02;55.17;99658.41;5059780;28;20045;-78
2023/02/27 13:53:20;;;;;;;3.40;1.48;;;;;;;1.91;55.40;99653.00;5066271;28;20044;-78
2023/02/27 13:55:46;;;;;;;2.03;0.98;;;;;;;2.35;51.83;99656.78;5067133;28;20094;-77
2023/02/27 13:58:18;;;;;;;1.08;0.98;;;;;;;2.44;52.15;99664.09;5065009;28;20044;-79
2023/02/27 14:00:55;;;;;;;4.05;1.08;;;;;;;2.35;52.17;99661.28;5063691;28;20044;-78
2023/02/27 14:03:26;;;;;;;4.00;1.48;;;;;;;2.45;51.61;99660.44;5061704;28;20076;-78
2023/02/27 14:05:56;;;;;;;2.95;1.13;;;;;;;2.69;51.69;99653.25;5066923;28;20048;-78
2023/02/27 14:08:25;;;;;;;7.72;1.70;;;;;;;2.93;51.81;99648.56;5074356;28;20040;-78
2023/02/27 14:10:57;;;;;;;2.95;1.15;;;;;;;3.12;51.58;99652.47;5064615;28;20051;-78
2023/02/27 14:13:58;;;;;;;0.90;0.80;;;;;;;3.00;49.95;99665.06;5067825;28;20055;-78
2023/02/27 14:16:50;;;;;;;1.20;0.88;;;;;;;2.28;51.73;99661.75;5073361;28;20059;-78
2023/02/27 14:19:49;;;;;;;1.15;1.10;;;;;;;2.17;51.92;99658.19;5073411;28;20055;-78
2023/02/27 14:22:41;;;;;;;1.40;1.00;;;;;;;2.21;52.29;99673.94;5058956;28;20076;-78
2023/02/27 14:25:22;;;;;;;5.35;1.85;;;;;;;2.21;53.70;99675.75;5066952;28;20561;-78
2023/02/27 14:27:54;;;;;;;3.08;1.48;;;;;;;2.22;51.68;99667.59;5066908;28;20494;-78
2023/02/27 14:30:33;;;;;;;3.58;1.05;;;;;;;2.47;52.27;99671.91;5066703;28;20135;-78
2023/02/27 14:33:07;;;;;;;1.42;1.05;;;;;;;2.21;51.73;99670.41;5061793;28;20052;-81
2023/02/27 14:35:36;;;;;;;1.40;1.25;;;;;;;2.35;51.10;99662.16;5069523;28;20068;-78
2023/02/27 14:38:09;;;;;;;2.53;1.13;;;;;;;2.60;51.32;99660.19;5069851;28;20051;-78
2023/02/27 14:40:40;;;;;;;1.60;0.88;;;;;;;2.50;50.22;99643.09;5067914;28;20499;-78
2023/02/27 14:43:16;;;;;;;1.30;1.20;;;;;;;2.24;49.76;99667.47;5071191;28;20044;-78
2023/02/27 14:45:43;;;;;;;0.90;0.90;;;;;;;2.45;49.85;99662.25;5065302;28;20044;-78
2023/02/27 14:48:10;;;;;;;2.25;1.10;;;;;;;2.63;49.94;99662.63;5069919;28;20052;-78
2023/02/27 14:50:40;;;;;;;0.80;0.80;;;;;;;2.57;50.08;99634.44;5070052;28;20055;-78
2023/02/27 14:53:21;;;;;;;3.53;1.08;;;;;;;2.82;49.68;99665.56;5067871;28;20089;-78
2023/02/27 14:55:55;;;;;;;1.67;0.90;;;;;;;2.73;50.27;99649.34;5070468;28;20709;-78
2023/02/27 14:58:22;;;;;;;1.10;1.00;;;;;;;2.91;52.10;99666.66;5070073;28;20044;-78
2023/02/27 15:01:01;;;;;;;1.02;1.02;;;;;;;3.00;51.57;99657.84;5072728;28;20044;-78
2023/02/27 15:03:33;;;;;;;1.35;0.85;;;;;;;2.42;52.64;99647.25;5062101;28;20063;-78
2023/02/27 15:06:05;;;;;;;2.25;1.10;;;;;;;2.21;52.49;99686.50;5073760;28;20053;-78
2023/02/27 15:08:34;;;;;;;2.28;1.15;;;;;;;1.92;52.52;99665.47;5072057;28;20074;-78
2023/02/27 15:11:01;;;;;;;1.25;1.10;;;;;;;2.06;53.04;99685.84;5070172;28;20396;-78
2023/02/27 15:13:30;;;;;;;1.50;1.00;;;;;;;1.79;54.38;99686.13;5072434;28;20060;-78
2023/02/27 15:16:27;;;;;;;1.10;1.00;;;;;;;1.77;53.76;99700.50;5069402;28;20037;-78
2023/02/27 15:18:55;;;;;;;2.13;1.30;;;;;;;1.62;53.25;99704.31;5061484;28;20092;-78
2023/02/27 15:21:25;;;;;;;2.15;1.52;;;;;;;1.55;52.57;99700.38;5067428;28;20056;-78
2023/02/27 15:23:54;;;;;;;;;;;;;;;1.54;52.10;99712.09;5073336;28;20111;-78
2023/02/27 15:26:21;;;;;;;2.55;1.17;;;;;;;1.55;53.82;99720.03;5071069;28;19920;-78
2023/02/27 15:28:49;;;;;;;0.90;0.90;;;;;;;1.52;53.90;99709.53;5060781;28;20048;-78
2023/02/27 15:31:20;;;;;;;1.88;1.20;;;;;;;1.35;55.09;99694.69;5073065;28;20048;-78
2023/02/27 15:33:48;;;;;;;5.53;1.27;;;;;;;1.44;55.05;99705.72;5061309;28;20056;-78
2023/02/27 15:36:20;;;;;;;5.72;1.40;;;;;;;1.45;54.31;99704.75;5068870;28;20054;-78
2023/02/27 15:39:04;;;;;;;1.20;1.10;;;;;;;1.27;55.22;99705.13;5073411;28;20123;-78
2023/02/27 15:41:31;;;;;;;1.58;1.02;;;;;;;1.13;55.32;99689.19;5072999;28;20138;-78
2023/02/27 15:43:58;;;;;;;1.33;0.93;;;;;;;1.12;55.19;99693.69;5072553;28;20049;-78
2023/02/27 15:46:26;;;;;;;0.95;0.85;;;;;;;1.23;55.67;99717.00;5069295;28;20049;-78
2023/02/27 15:48:54;;;;;;;1.40;1.30;;;;;;;1.19;54.90;99705.69;5072658;28;20044;-78
2023/02/27 15:51:21;;;;;;;1.15;1.05;;;;;;;1.10;54.78;99689.41;5088469;28;20048;-78
2023/02/27 15:53:53;;;;;;;2.50;1.27;;;;;;;1.07;52.98;99703.91;5092454;28;20052;-78
2023/02/27 15:56:25;;;;;;;1.90;1.00;;;;;;;1.19;54.83;99712.84;5072437;28;20056;-78
2023/02/27 15:58:56;;;;;;;3.15;1.50;;;;;;;1.15;55.80;99714.06;5063927;28;20506;-78
2023/02/27 16:01:25;;;;;;;1.95;1.08;;;;;;;1.12;55.34;99707.09;5072307;28;20048;-78
2023/02/27 16:03:55;;;;;;;1.10;1.00;;;;;;;0.99;54.64;99715.13;5070714;28;20048;-78
2023/02/27 16:06:25;;;;;;;0.85;0.73;;;;;;;1.13;55.31;99732.91;5065081;28;20053;-78
2023/02/27 16:08:55;;;;;;;2.42;1.63;;;;;;;1.14;55.87;99731.09;5072486;28;20048;-78
2023/02/27 16:11:25;;;;;;;4.07;1.55;;;;;;;1.04;55.59;99713.00;5072460;28;20139;-78
2023/02/27 16:13:53;;;;;;;3.08;1.00;;;;;;;1.04;54.26;99729.06;5071888;28;20048;-78
2023/02/27 16:16:27;;;;;;;1.85;1.13;;;;;;;0.87;54.58;99727.59;5071734;28;20048;-78
2023/02/27 16:18:55;;;;;;;4.68;1.85;;;;;;;0.88;54.25;99740.00;5070826;28;20041;-77
2023/02/27 16:21:23;;;;;;;2.03;1.02;;;;;;;0.77;53.80;99726.53;5071561;28;20044;-78
2023/02/27 16:23:51;;;;;;;1.92;1.08;;;;;;;0.77;54.53;99739.94;5072042;28;20490;-78
2023/02/27 16:26:37;;;;;;;1.23;1.13;;;;;;;0.69;53.51;99735.13;5065809;28;20048;-78
2023/02/27 16:29:06;;;;;;;2.53;1.10;;;;;;;0.69;54.39;99729.75;5063385;28;20036;-77
2023/02/27 16:31:35;;;;;;;2.03;1.20;;;;;;;0.64;55.18;99731.88;5068830;28;20055;-78
2023/02/27 16:34:13;;;;;;;1.10;1.00;;;;;;;0.69;55.04;99751.19;5063541;28;20045;-78
2023/02/27 16:36:41;;;;;;;1.67;1.15;;;;;;;0.78;55.60;99756.84;5066732;28;20057;-78
2023/02/27 16:39:11;;;;;;;2.67;0.90;;;;;;;0.80;54.92;99774.50;5069504;28;20047;-78
2023/02/27 16:41:39;;;;;;;1.48;1.13;;;;;;;0.68;55.45;99770.00;5069584;28;20052;-78
2023/02/27 16:44:06;;;;;;;1.70;1.20;;;;;;;0.52;55.34;99759.50;5068930;28;20252;-78
2023/02/27 16:46:33;;;;;;;1.48;1.30;;;;;;;0.47;55.34;99758.97;5067822;28;20676;-78
2023/02/27 16:49:00;;;;;;;3.50;1.27;;;;;;;0.39;54.42;99764.84;5070063;28;20049;-78
2023/02/27 16:51:29;;;;;;;0.95;0.95;;;;;;;0.41;54.44;99772.78;5069655;28;20063;-78
2023/02/27 16:53:56;;;;;;;2.03;1.30;;;;;;;0.39;55.56;99783.56;5068276;28;20514;-78
2023/02/27 16:56:24;;;;;;;6.47;1.33;;;;;;;0.47;55.58;99796.44;5067358;28;20143;-78
2023/02/27 16:58:53;;;;;;;1.63;1.35;;;;;;;0.32;55.43;99784.97;5066195;28;20491;-78
2023/02/27 17:01:20;;;;;;;3.17;1.20;;;;;;;0.37;56.18;99785.50;5067921;28;20044;-77
2023/02/27 17:03:47;;;;;;;3.85;1.15;;;;;;;0.26;56.22;99772.00;5067834;28;20044;-78
2023/02/27 17:06:14;;;;;;;2.72;1.33;;;;;;;0.45;56.16;99809.91;5069340;28;20055;-78
2023/02/27 17:08:43;;;;;;;3.42;1.27;;;;;;;0.33;56.95;99795.56;5068774;28;20055;-77
2023/02/27 17:11:10;;;;;;;1.73;1.35;;;;;;;0.25;57.37;99783.66;5068696;28;20049;-78
2023/02/27 17:13:36;;;;;;;1.20;1.10;;;;;;;0.25;57.89;99781.84;5069313;28;20048;-78
2023/02/27 17:16:06;;;;;;;1.90;1.17;;;;;;;0.41;57.19;99803.06;5068281;28;20047;-78
2023/02/27 17:18:33;;;;;;;1.27;1.17;;;;;;;0.30;57.38;99797.56;5068244;28;20049;-78
2023/02/27 17:21:01;;;;;;;1.70;1.60;;;;;;;0.39;56.62;99804.97;5068981;28;20499;-79
2023/02/27 17:23:28;;;;;;;4.13;1.10;;;;;;;0.45;57.85;99807.25;5066613;28;20060;-78
2023/02/27 17:25:54;;;;;;;2.90;1.83;;;;;;;0.30;57.47;99793.09;5065775;28;20049;-78
2023/02/27 17:28:22;;;;;;;2.42;1.30;;;;;;;0.33;57.53;99797.34;5065474;28;20416;-78
2023/02/27 17:30:49;;;;;;;2.22;1.30;;;;;;;0.50;58.00;99817.63;5067456;28;20411;-78
2023/02/27 17:33:17;;;;;;;2.20;1.80;;;;;;;0.37;59.15;99812.25;5062687;28;20049;-78
2023/02/27 17:35:44;;;;;;;4.05;1.20;;;;;;;0.26;58.85;99793.41;5068415;28;20045;-78
2023/02/27 17:38:10;;;;;;;1.20;1.10;;;;;;;0.34;59.28;99807.09;5067724;28;20049;-78
2023/02/27 17:40:38;;;;;;;5.55;1.40;;;;;;;0.31;59.51;99807.31;5064914;28;20086;-78
2023/02/27 17:43:04;;;;;;;2.08;1.30;;;;;;;0.28;59.62;99810.19;5068524;28;20052;-78
2023/02/27 17:45:31;;;;;;;3.72;1.50;;;;;;;0.38;60.11;99831.81;5068488;28;20095;-78
2023/02/27 17:47:58;;;;;;;2.88;1.35;;;;;;;0.18;60.86;99804.59;5068306;28;20406;-78
2023/02/27 17:50:26;;;;;;;4.22;1.55;;;;;;;0.38;59.77;99835.38;5069264;28;20106;-78
2023/02/27 17:52:53;;;;;;;2.15;1.20;;;;;;;0.48;59.66;99847.16;5067465;28;20530;-78
2023/02/27 17:55:19;;;;;;;3.63;1.30;;;;;;;0.26;59.76;99829.03;5072635;28;20098;-78
2023/02/27 17:57:46;;;;;;;1.63;1.48;;;;;;;0.26;59.54;99820.16;5063111;28;20048;-78
2023/02/27 18:00:14;;;;;;;1.48;1.20;;;;;;;0.26;59.25;99834.38;5067574;28;20071;-78
2023/02/27 18:02:43;;;;;;;4.40;1.60;;;;;;;0.23;58.74;99823.88;5066131;28;20060;-78
2023/02/27 18:05:09;;;;;;;1.67;1.15;;;;;;;0.33;58.93;99846.38;5051887;28;20511;-78
2023/02/27 18:07:37;;;;;;;1.48;1.35;;;;;;;0.28;59.69;99843.13;5047762;28;20053;-78
2023/02/27 18:10:05;;;;;;;1.95;1.23;;;;;;;0.28;59.10;99842.28;5064552;28;20055;-78
2023/02/27 18:12:32;;;;;;;2.17;1.42;;;;;;;0.26;58.75;99839.72;5067414;28;20102;-78
2023/02/27 18:14:58;;;;;;;5.97;1.35;;;;;;;0.39;58.39;99850.44;5068241;28;20450;-78
2023/02/27 18:17:25;;;;;;;1.50;1.40;;;;;;;0.31;58.25;99844.75;5059433;28;20045;-78
2023/02/27 18:19:51;;;;;;;2.05;1.40;;;;;;;0.40;58.23;99856.66;5068318;28;20049;-78
2023/02/27 18:22:20;;;;;;;1.38;1.27;;;;;;;0.31;58.21;99850.94;5066658;28;20076;-78
2023/02/27 18:24:48;;;;;;;1.45;1.35;;;;;;;0.34;58.65;99856.09;5061840;28;20102;-78
2023/02/27 18:27:16;;;;;;;2.70;1.35;;;;;;;0.25;56.85;99851.38;5067610;28;20383;-78
2023/02/27 18:29:42;;;;;;;1.00;1.00;;;;;;;0.17;57.33;99846.53;5075026;28;20067;-78
2023/02/27 18:32:09;;;;;;;0.95;0.93;;;;;;;0.29;56.50;99866.25;5067280;28;20488;-78
2023/02/27 18:34:36;;;;;;;1.00;1.00;;;;;;;0.15;56.01;99836.88;5067994;28;20428;-78
2023/02/27 18:37:02;;;;;;;2.60;1.08;;;;;;;0.21;55.73;99865.03;5067263;28;20110;-78
2023/02/27 18:39:29;;;;;;;2.22;1.48;;;;;;;0.13;55.96;99857.53;5068463;28;20048;-78
2023/02/27 18:41:58;;;;;;;2.45;1.27;;;;;;;0.04;56.11;99858.16;5065146;28;20045;-78
2023/02/27 18:44:24;;;;;;;1.73;1.60;;;;;;;0.09;56.19;99877.41;5069866;28;20225;-78
2023/02/27 18:46:51;;;;;;;1.92;1.42;;;;;;;-0.05;55.09;99868.47;5064292;28;20048;-78
2023/02/27 18:49:19;;;;;;;2.78;1.45;;;;;;;-0.13;54.58;99868.13;5069678;28;20075;-78
2023/02/27 18:51:45;;;;;;;0.98;0.98;;;;;;;-0.12;53.04;99860.94;5066464;28;20053;-78
2023/02/27 18:54:13;;;;;;;1.58;1.10;;;;;;;0.01;54.34;99885.06;5071145;28;20052;-78
2023/02/27 18:56:39;;;;;;;1.40;1.30;;;;;;;-0.05;53.91;99897.03;5069904;28;20048;-78
2023/02/27 18:59:07;;;;;;;1.73;1.40;;;;;;;-0.06;54.61;99881.94;5059793;28;20084;-79
2023/02/27 19:01:36;;;;;;;1.30;1.15;;;;;;;-0.23;55.19;99872.34;5069723;28;20074;-78
2023/02/27 19:04:04;;;;;;;7.13;1.38;;;;;;;-0.25;54.75;99876.94;5069270;28;20068;-79
2023/02/27 19:06:31;;;;;;;2.95;1.30;;;;;;;-0.29;55.15;99872.72;5063197;28;20072;-78
2023/02/27 19:08:58;;;;;;;3.70;1.35;;;;;;;-0.30;56.09;99884.38;5070383;28;20037;-79
2023/02/27 19:11:31;;;;;;;1.52;1.42;;;;;;;-0.48;57.29;99873.03;5070928;28;20051;-79
2023/02/27 19:13:58;;;;;;;3.38;1.45;;;;;;;-0.43;56.09;99895.00;5067911;28;20052;-79
2023/02/27 19:16:27;;;;;;;1.30;1.20;;;;;;;-0.51;57.76;99894.59;5063675;28;20053;-79
2023/02/27 19:18:54;;;;;;;4.50;1.25;;;;;;;-0.49;57.26;99901.56;5062568;28;20044;-79
2023/02/27 19:21:21;;;;;;;2.03;1.40;;;;;;;-0.71;57.67;99891.34;5062819;28;20058;-79
2023/02/27 19:23:47;;;;;;;2.58;1.23;;;;;;;-0.70;57.57;99886.91;5068618;28;20048;-79
2023/02/27 19:26:14;;;;;;;1.52;1.42;;;;;;;-0.77;58.39;99905.09;5068856;28;20059;-79
2023/02/27 19:28:40;;;;;;;1.80;1.42;;;;;;;-0.86;57.61;99879.81;5069286;28;20041;-78
2023/02/27 19:31:08;;;;;;;1.58;1.30;;;;;;;-0.97;57.98;99864.47;5068396;28;20036;-78
2023/02/27 19:33:39;;;;;;;1.98;1.17;;;;;;;-0.93;58.33;99884.69;5070044;28;20052;-79
2023/02/27 19:36:06;;;;;;;2.67;1.98;;;;;;;-0.99;58.64;99887.72;5072592;28;20048;-79
2023/02/27 19:38:33;;;;;;;2.33;1.42;;;;;;;-0.97;57.38;99879.63;5068216;28;20053;-79
2023/02/27 19:41:01;;;;;;;2.08;1.70;;;;;;;-1.00;57.98;99891.34;5070839;28;20055;-78
2023/02/27 19:43:27;;;;;;;3.38;1.77;;;;;;;-0.94;58.54;99903.47;5066944;28;20049;-79
2023/02/27 19:45:54;;;;;;;1.73;1.25;;;;;;;-0.97;58.57;99898.31;5064251;28;20048;-79
2023/02/27 19:48:20;;;;;;;1.92;1.60;;;;;;;-1.09;58.98;99889.25;5069831;28;20045;-78
2023/02/27 19:50:49;;;;;;;1.73;1.60;;;;;;;-1.15;58.78;99889.63;5071292;28;20040;-78
2023/02/27 19:53:15;;;;;;;4.80;1.85;;;;;;;-1.11;57.84;99902.69;5065766;28;20052;-78
2023/02/27 19:55:42;;;;;;;2.65;1.63;;;;;;;-1.16;59.29;99902.09;5065460;28;20045;-79
2023/02/27 19:58:08;;;;;;;2.33;1.63;;;;;;;-1.23;58.58;99894.53;5062671;28;20056;-79
2023/02/27 20:00:35;;;;;;;2.92;1.63;;;;;;;-1.17;59.05;99910.19;5067833;28;20052;-79
2023/02/27 20:03:02;;;;;;;4.65;1.73;;;;;;;-1.32;59.14;99885.28;5059813;28;20045;-78
2023/02/27 20:05:28;;;;;;;2.72;1.75;;;;;;;-1.30;59.41;99892.22;5066931;28;20403;-78
2023/02/27 20:07:56;;;;;;;4.57;1.40;;;;;;;-1.33;58.57;99904.91;5068923;28;20476;-79
2023/02/27 20:10:23;;;;;;;1.33;1.23;;;;;;;-1.23;57.97;99903.41;5067198;28;20051;-78
2023/02/27 20:12:49;;;;;;;2.10;1.50;;;;;;;-1.35;58.25;99880.16;5069651;28;20055;-79
2023/02/27 20:15:16;;;;;;;4.10;1.90;;;;;;;-1.49;60.10;99892.50;5068287;28;20044;-78
2023/02/27 20:17:42;;;;;;;4.75;2.42;;;;;;;-1.56;59.52;99890.28;5065924;28;20377;-77
2023/02/27 20:20:10;;;;;;;1.65;1.55;;;;;;;-1.53;59.01;99888.28;5069687;28;20053;-78
2023/02/27 20:22:37;;;;;;;3.28;1.63;;;;;;;-1.44;59.55;99886.88;5065822;28;20056;-79
2023/02/27 20:25:06;;;;;;;1.55;1.45;;;;;;;-1.68;59.78;99879.38;5066747;28;20110;-78
2023/02/27 20:27:34;;;;;;;3.53;1.70;;;;;;;-1.53;59.21;99892.75;5062170;28;20052;-78
2023/02/27 20:30:00;;;;;;;2.53;1.60;;;;;;;-1.46;59.23;99892.31;5065208;28;20045;-78
2023/02/27 20:32:27;;;;;;;1.70;1.60;;;;;;;-1.49;59.63;99902.28;5064292;28;20480;-78
2023/02/27 20:34:55;;;;;;;2.30;1.75;;;;;;;-1.57;60.15;99881.41;5068740;28;20059;-78
2023/02/27 20:37:22;;;;;;;3.00;1.75;;;;;;;-1.70;59.99;99867.06;5063847;28;20044;-78
2023/02/27 20:39:49;;;;;;;5.80;1.80;;;;;;;-1.70;59.58;99872.41;5064675;28;20055;-78
2023/02/27 20:42:17;;;;;;;1.63;1.52;;;;;;;-1.66;61.09;99885.44;5066705;28;20134;-78
2023/02/27 20:44:43;;;;;;;1.55;1.45;;;;;;;-1.75;59.81;99859.34;5066940;28;20115;-78
2023/02/27 20:47:10;;;;;;;5.38;2.15;;;;;;;-1.73;60.74;99869.91;5067159;28;20059;-78
2023/02/27 20:49:38;;;;;;;1.88;1.65;;;;;;;-1.69;60.19;99888.28;5068788;28;20499;-78
2023/02/27 20:52:04;;;;;;;2.60;1.70;;;;;;;-1.75;59.65;99855.81;5067274;28;20056;-78
2023/02/27 20:54:31;;;;;;;1.88;1.55;;;;;;;-1.66;60.39;99872.13;5067171;28;20044;-78
2023/02/27 20:56:57;;;;;;;2.15;1.60;;;;;;;-1.72;61.23;99882.28;5063151;28;20045;-78
2023/02/27 20:59:25;;;;;;;4.60;1.63;;;;;;;-1.72;61.13;99884.97;5063265;28;20050;-78
2023/02/27 21:01:53;;;;;;;1.73;1.63;;;;;;;-1.82;61.65;99879.31;5067117;28;20048;-78
2023/02/27 21:04:24;;;;;;;1.42;1.33;;;;;;;-1.70;60.78;99875.94;5064605;28;20056;-78
2023/02/27 21:06:51;;;;;;;2.05;1.95;;;;;;;-1.77;60.86;99865.72;5064201;28;20059;-78
2023/02/27 21:09:18;;;;;;;2.45;1.38;;;;;;;-1.97;61.10;99841.94;5066325;28;20472;-78
2023/02/27 21:11:45;;;;;;;2.00;1.38;;;;;;;-1.81;60.74;99873.91;5058269;28;20048;-78
2023/02/27 21:14:12;;;;;;;2.40;1.60;;;;;;;-1.91;61.13;99848.72;5064886;28;20044;-78
2023/02/27 21:16:40;;;;;;;3.08;1.77;;;;;;;-1.91;60.80;99863.84;5067830;28;20040;-79
2023/02/27 21:19:07;;;;;;;2.30;1.60;;;;;;;-2.01;61.09;99844.88;5068156;28;20090;-78
2023/02/27 21:21:34;;;;;;;1.80;1.67;;;;;;;-1.80;60.54;99875.59;5070693;28;20055;-78
2023/02/27 21:24:02;;;;;;;2.05;1.80;;;;;;;-1.78;60.80;99870.19;5071315;28;20082;-78
2023/02/27 21:26:31;;;;;;;3.17;2.08;;;;;;;-1.89;60.98;99860.13;5066863;28;20051;-78
2023/02/27 21:28:59;;;;;;;2.33;1.88;;;;;;;-1.91;61.69;99855.84;5066675;28;20044;-78
2023/02/27 21:31:28;;;;;;;1.33;1.20;;;;;;;-1.86;61.23;99870.63;5068209;28;20048;-78
2023/02/27 21:33:57;;;;;;;1.65;1.55;;;;;;;-1.87;61.17;99871.56;5069678;28;20295;-78
2023/02/27 21:36:25;;;;;;;2.90;1.30;;;;;;;-1.90;60.84;99854.91;5069639;28;20059;-77
2023/02/27 21:38:56;;;;;;;2.25;1.90;;;;;;;-1.92;61.01;99836.34;5069469;28;20048;-78
2023/02/27 21:41:23;;;;;;;1.60;1.50;;;;;;;-1.97;61.15;99833.09;5067286;28;20053;-78
2023/02/27 21:43:50;;;;;;;3.92;2.40;;;;;;;-2.01;61.73;99834.22;5062977;28;20140;-78
2023/02/27 21:46:16;;;;;;;1.65;1.48;;;;;;;-1.88;62.07;99861.88;5069565;28;20040;-78
2023/02/27 21:48:43;;;;;;;2.75;1.80;;;;;;;-1.95;62.00;99849.84;5069390;28;20040;-78
2023/02/27 21:51:11;;;;;;;4.68;1.85;;;;;;;-1.96;62.93;99858.78;5070095;28;20049;-78
2023/02/27 21:53:37;;;;;;;2.05;1.85;;;;;;;-2.08;61.71;99838.16;5069042;28;20083;-78
2023/02/27 21:56:06;;;;;;;2.47;2.28;;;;;;;-1.99;62.62;99848.28;5067380;28;20044;-78
2023/02/27 21:58:32;;;;;;;3.58;1.80;;;;;;;-1.95;62.59;99857.84;5063244;28;20052;-78
2023/02/27 22:00:59;;;;;;;2.20;1.77;;;;;;;-1.95;62.84;99852.50;5069279;28;20048;-78
2023/02/27 22:03:32;;;;;;;3.03;1.98;;;;;;;-1.98;62.73;99853.53;5060569;28;20492;-78
2023/02/27 22:05:59;;;;;;;4.07;2.08;;;;;;;-2.02;63.25;99856.47;5067811;28;20052;-78
2023/02/27 22:08:27;;;;;;;2.33;1.90;;;;;;;-1.99;63.24;99843.84;5069452;28;20384;-78
2023/02/27 22:10:56;;;;;;;2.78;2.30;;;;;;;-2.09;64.17;99832.00;5068359;28;20044;-78
2023/02/27 22:13:22;;;;;;;2.33;1.30;;;;;;;-2.15;63.17;99819.03;5063009;28;20136;-78